Time;durP1;ratioP1;P1;durP2;ratioP2;P2;SDS_P1;SDS_P2;PMS_P1;PMS_P2;Temp;Humidity;BMP_temperature;BMP_pressure;BME280_temperature;BME280_humidity;BME280_pressure;Samples;Min_cycle;Max_cycle;Signal;HPM_P1;HPM_P2
2021/12/04 00:01:48;;;;;;;3.00;1.77;;;4.10;99.90;;;;;;5013449;28;20025;-67
2021/12/04 00:04:20;;;;;;;1.98;0.95;;;4.10;99.90;;;;;;5013330;28;20021;-67
2021/12/04 00:06:46;;;;;;;1.75;1.08;;;4.20;99.90;;;;;;5025338;28;20045;-67
2021/12/04 00:09:14;;;;;;;4.18;1.65;;;4.10;99.90;;;;;;5023426;28;20889;-67
2021/12/04 00:11:47;;;;;;;2.88;1.75;;;4.10;99.90;;;;;;5021844;28;20101;-67
2021/12/04 00:14:12;;;;;;;3.45;1.00;;;4.10;99.90;;;;;;5022883;28;20136;-67
2021/12/04 00:16:38;;;;;;;1.52;1.10;;;4.10;99.90;;;;;;5020814;28;20440;-67
2021/12/04 00:19:04;;;;;;;1.85;1.05;;;4.10;99.90;;;;;;5013977;28;20022;-67
2021/12/04 00:21:29;;;;;;;1.85;1.10;;;4.10;99.90;;;;;;5012423;28;20018;-67
2021/12/04 00:23:55;;;;;;;1.45;1.05;;;4.10;99.90;;;;;;5016538;28;20049;-67
2021/12/04 00:26:20;;;;;;;4.30;1.75;;;4.10;99.90;;;;;;5013781;28;20049;-67
2021/12/04 00:28:46;;;;;;;2.53;1.90;;;4.30;99.90;;;;;;5018092;28;20030;-67
2021/12/04 00:31:12;;;;;;;3.50;1.40;;;4.10;99.90;;;;;;5017734;28;20025;-67
2021/12/04 00:33:42;;;;;;;3.90;1.17;;;4.10;99.90;;;;;;5016037;28;20032;-67
2021/12/04 00:36:12;;;;;;;0.70;0.70;;;4.10;99.90;;;;;;5016701;28;20112;-67
2021/12/04 00:49:48;;;;;;;2.00;1.35;;;4.00;99.90;;;;;;5019464;28;20087;-67
2021/12/04 00:52:13;;;;;;;2.63;1.25;;;4.10;99.90;;;;;;5022300;28;20014;-68
2021/12/04 00:54:39;;;;;;;2.85;1.23;;;4.00;99.90;;;;;;5026454;28;20033;-67
2021/12/04 00:57:05;;;;;;;2.55;1.42;;;4.10;99.90;;;;;;5025724;28;20028;-67
2021/12/04 00:59:30;;;;;;;2.17;1.25;;;4.00;99.90;;;;;;5025544;28;20528;-67
2021/12/04 01:01:56;;;;;;;1.17;0.93;;;4.10;99.90;;;;;;5026513;28;20092;-67
2021/12/04 01:04:23;;;;;;;1.92;1.20;;;4.10;99.90;;;;;;5023052;28;20024;-67
2021/12/04 01:06:49;;;;;;;2.55;1.55;;;4.10;99.90;;;;;;5028042;28;20122;-67
2021/12/04 01:09:17;;;;;;;2.35;1.20;;;4.10;99.90;;;;;;5024946;28;20426;-67
2021/12/04 01:11:44;;;;;;;3.90;1.25;;;4.10;99.90;;;;;;5026058;28;20427;-67
2021/12/04 01:14:11;;;;;;;3.13;1.42;;;4.10;99.90;;;;;;5023978;28;20026;-67
2021/12/04 01:16:37;;;;;;;2.83;1.30;;;4.10;99.90;;;;;;5024948;28;20033;-67
2021/12/04 01:19:03;;;;;;;1.58;1.02;;;4.20;99.90;;;;;;5020051;28;20021;-67
2021/12/04 01:21:29;;;;;;;2.90;1.73;;;4.10;99.90;;;;;;5023884;28;20029;-67
2021/12/04 01:23:55;;;;;;;5.30;1.98;;;4.20;99.90;;;;;;5026935;28;20037;-67
2021/12/04 01:26:21;;;;;;;1.33;0.98;;;4.10;99.90;;;;;;5024362;28;20545;-67
2021/12/04 01:28:47;;;;;;;2.13;1.55;;;4.10;99.90;;;;;;5031321;28;20045;-67
2021/12/04 01:31:13;;;;;;;0.77;0.75;;;4.20;99.90;;;;;;5024205;28;20026;-67
2021/12/04 01:33:39;;;;;;;1.05;0.90;;;4.20;99.90;;;;;;5024059;28;20028;-67
2021/12/04 01:36:04;;;;;;;1.55;0.88;;;4.10;99.90;;;;;;5020649;28;20022;-67
2021/12/04 01:38:30;;;;;;;2.92;1.50;;;4.20;99.90;;;;;;5028115;28;20367;-67
2021/12/04 01:40:56;;;;;;;1.90;1.33;;;4.20;99.90;;;;;;5026902;28;20057;-67
2021/12/04 01:43:21;;;;;;;2.28;1.10;;;4.20;99.90;;;;;;5028584;28;20429;-67
2021/12/04 01:45:47;;;;;;;2.30;1.30;;;4.20;99.90;;;;;;5015764;28;20473;-67
2021/12/04 01:48:13;;;;;;;2.08;1.33;;;4.20;99.90;;;;;;5022136;28;20432;-67
2021/12/04 01:50:38;;;;;;;2.47;1.52;;;4.10;99.90;;;;;;5025994;28;20021;-67
2021/12/04 01:53:04;;;;;;;3.85;1.65;;;4.10;99.90;;;;;;5027462;28;20056;-67
2021/12/04 01:55:33;;;;;;;1.52;1.00;;;4.10;99.90;;;;;;5023126;28;20080;-67
2021/12/04 01:58:01;;;;;;;1.60;1.23;;;4.10;99.90;;;;;;5026965;28;20389;-67
2021/12/04 02:00:28;;;;;;;3.15;1.50;;;4.10;99.90;;;;;;5023064;28;20026;-67
2021/12/04 02:02:53;;;;;;;2.42;1.05;;;4.10;99.90;;;;;;5019847;28;20088;-67
2021/12/04 02:05:20;;;;;;;4.10;1.60;;;4.20;99.90;;;;;;5027749;28;20029;-67
2021/12/04 02:07:46;;;;;;;2.55;1.42;;;4.20;99.90;;;;;;5014237;28;20424;-67
2021/12/04 02:10:12;;;;;;;4.32;2.00;;;4.10;99.90;;;;;;5026416;28;20094;-67
2021/12/04 02:12:38;;;;;;;1.73;1.08;;;4.20;99.90;;;;;;5023843;28;20466;-67
2021/12/04 02:15:06;;;;;;;3.15;1.35;;;4.20;99.90;;;;;;5023220;28;20029;-67
2021/12/04 02:17:32;;;;;;;2.60;1.20;;;4.10;99.90;;;;;;5027666;28;20076;-67
2021/12/04 02:19:59;;;;;;;3.58;1.88;;;4.20;99.90;;;;;;5027314;28;20377;-67
2021/12/04 02:22:24;;;;;;;1.38;0.85;;;4.20;99.90;;;;;;5026647;28;20025;-67
2021/12/04 02:24:50;;;;;;;5.05;1.92;;;4.20;99.90;;;;;;5025612;28;20037;-67
2021/12/04 02:27:16;;;;;;;4.93;2.15;;;4.30;99.90;;;;;;5026245;28;20405;-67
2021/12/04 02:29:48;;;;;;;6.40;1.73;;;4.30;99.90;;;;;;5027540;28;20025;-67
2021/12/04 02:32:15;;;;;;;3.60;1.42;;;4.30;99.90;;;;;;5021836;28;20496;-67
2021/12/04 02:34:41;;;;;;;6.18;1.98;;;4.20;99.90;;;;;;5025540;28;20112;-67
2021/12/04 02:37:08;;;;;;;4.10;1.30;;;4.30;99.90;;;;;;5025845;28;20513;-67
2021/12/04 02:39:36;;;;;;;1.85;0.98;;;4.30;99.90;;;;;;5023468;28;20026;-67
2021/12/04 02:42:05;;;;;;;1.58;1.00;;;4.30;99.90;;;;;;5025816;28;20028;-67
2021/12/04 02:44:40;;;;;;;3.70;1.27;;;4.30;99.90;;;;;;5027118;28;20478;-67
2021/12/04 02:47:06;;;;;;;4.70;1.95;;;4.30;99.90;;;;;;5024744;28;20300;-67
2021/12/04 02:49:32;;;;;;;4.15;1.38;;;4.30;99.90;;;;;;5026335;28;20030;-67
2021/12/04 02:52:08;;;;;;;3.03;1.33;;;4.30;99.90;;;;;;5033209;28;20108;-67
2021/12/04 02:54:34;;;;;;;5.78;2.00;;;4.30;99.90;;;;;;5026521;28;20370;-67
2021/12/04 02:57:01;;;;;;;1.73;1.23;;;4.30;99.90;;;;;;5025614;28;20109;-67
2021/12/04 02:59:27;;;;;;;3.88;1.95;;;4.30;99.90;;;;;;5027210;28;20022;-67
2021/12/04 03:01:57;;;;;;;2.38;1.10;;;4.30;99.90;;;;;;5025361;28;20104;-67
2021/12/04 03:04:24;;;;;;;7.25;1.58;;;4.30;99.90;;;;;;5026328;28;20025;-67
2021/12/04 03:06:50;;;;;;;2.33;1.38;;;4.30;99.90;;;;;;5024132;28;20046;-67
2021/12/04 03:09:17;;;;;;;2.88;1.25;;;4.40;99.90;;;;;;5025899;28;20028;-67
2021/12/04 03:11:43;;;;;;;2.05;1.13;;;4.30;99.90;;;;;;5025515;28;20496;-67
2021/12/04 03:14:09;;;;;;;2.35;1.30;;;4.40;99.90;;;;;;5026026;28;20029;-67
2021/12/04 03:16:39;;;;;;;5.15;1.85;;;4.30;99.90;;;;;;5027068;28;20068;-67
2021/12/04 03:19:06;;;;;;;7.10;1.70;;;4.30;99.90;;;;;;5018182;28;20427;-67
2021/12/04 03:21:33;;;;;;;3.22;1.50;;;4.30;99.90;;;;;;5022657;28;20017;-67
2021/12/04 03:24:02;;;;;;;8.40;2.20;;;4.40;99.90;;;;;;5022602;28;20030;-67
2021/12/04 03:26:28;;;;;;;2.00;1.20;;;4.30;99.90;;;;;;5018805;28;20042;-67
2021/12/04 03:28:56;;;;;;;2.97;1.20;;;4.40;99.90;;;;;;5024572;28;20060;-67
2021/12/04 03:42:08;;;;;;;5.85;1.85;;;4.20;99.90;;;;;;5030740;28;20094;-67
2021/12/04 03:44:34;;;;;;;2.90;1.63;;;4.20;99.90;;;;;;5028769;28;20506;-67
2021/12/04 03:47:01;;;;;;;5.85;1.73;;;4.30;99.90;;;;;;5029471;28;20504;-67
2021/12/04 03:49:27;;;;;;;2.35;1.60;;;4.30;99.90;;;;;;5027961;28;20026;-67
2021/12/04 03:51:53;;;;;;;3.28;1.63;;;4.30;99.90;;;;;;5025994;28;20033;-67
2021/12/04 03:54:18;;;;;;;3.85;1.73;;;4.20;99.90;;;;;;5023371;28;20021;-67
2021/12/04 03:56:44;;;;;;;4.00;1.75;;;4.20;99.90;;;;;;5021139;28;20493;-67
2021/12/04 03:59:10;;;;;;;3.00;1.55;;;4.20;99.90;;;;;;5029239;28;20057;-67
2021/12/04 04:01:35;;;;;;;3.83;2.10;;;4.20;99.90;;;;;;5015380;28;20474;-67
2021/12/04 04:04:01;;;;;;;4.15;1.27;;;4.30;99.90;;;;;;5027283;28;20649;-67
2021/12/04 04:06:26;;;;;;;2.53;1.55;;;4.20;99.90;;;;;;5028627;28;20050;-67
2021/12/04 04:08:52;;;;;;;3.47;1.83;;;4.30;99.90;;;;;;5025040;28;20065;-67
2021/12/04 04:11:18;;;;;;;2.22;1.00;;;4.30;99.90;;;;;;5030459;28;20083;-67
2021/12/04 04:13:45;;;;;;;4.93;1.77;;;4.30;99.90;;;;;;5024303;28;20171;-67
2021/12/04 04:16:12;;;;;;;2.88;1.40;;;4.30;99.90;;;;;;5018306;28;20018;-67
2021/12/04 04:18:38;;;;;;;4.13;1.73;;;4.30;99.90;;;;;;5026100;28;20068;-67
2021/12/04 04:21:04;;;;;;;4.22;1.45;;;4.30;99.90;;;;;;5025486;28;20441;-67
2021/12/04 04:23:30;;;;;;;2.50;1.58;;;4.30;99.90;;;;;;5029140;28;20064;-67
2021/12/04 04:25:56;;;;;;;4.22;1.73;;;4.30;99.90;;;;;;5026302;28;20509;-67
2021/12/04 04:28:21;;;;;;;3.33;1.30;;;4.30;99.90;;;;;;5025752;28;20033;-67
2021/12/04 04:30:47;;;;;;;3.97;1.50;;;4.30;99.90;;;;;;5020157;28;20025;-67
2021/12/04 04:33:14;;;;;;;2.67;1.33;;;4.30;99.90;;;;;;5021517;28;20022;-67
2021/12/04 04:35:44;;;;;;;3.30;1.70;;;4.30;99.90;;;;;;5020910;28;20014;-67
2021/12/04 05:10:53;;;;;;;8.10;1.45;;;4.40;99.90;;;;;;5027309;28;20083;-67
2021/12/04 05:13:21;;;;;;;2.22;1.10;;;4.30;99.90;;;;;;5023176;28;20026;-67
2021/12/04 05:20:49;;;;;;;1.60;0.90;;;4.40;99.90;;;;;;5025532;28;20029;-67
2021/12/04 05:23:15;;;;;;;3.03;1.40;;;4.40;99.90;;;;;;5023315;28;20513;-67
2021/12/04 05:25:40;;;;;;;3.53;1.48;;;4.40;99.90;;;;;;5026167;28;20104;-67
2021/12/04 05:28:07;;;;;;;2.17;1.33;;;4.40;99.90;;;;;;5017427;28;20088;-67
2021/12/04 05:30:39;;;;;;;2.70;1.25;;;4.40;99.90;;;;;;5028701;28;20525;-67
2021/12/04 05:33:06;;;;;;;1.70;0.98;;;4.40;99.90;;;;;;5023146;28;20060;-67
2021/12/04 05:35:32;;;;;;;4.53;1.55;;;4.40;99.90;;;;;;5027991;28;20548;-67
2021/12/04 05:37:58;;;;;;;5.15;1.83;;;4.30;99.90;;;;;;5027444;28;20029;-67
2021/12/04 05:40:24;;;;;;;4.78;1.67;;;4.20;99.90;;;;;;5026461;28;20048;-67
2021/12/04 05:42:49;;;;;;;4.43;1.50;;;4.30;99.90;;;;;;5028086;28;20075;-67
2021/12/04 05:45:22;;;;;;;2.30;1.17;;;4.30;99.90;;;;;;5028313;28;20025;-67
2021/12/04 05:48:11;;;;;;;2.97;1.70;;;4.30;99.90;;;;;;5027416;28;20025;-67
2021/12/04 05:51:00;;;;;;;3.42;1.40;;;4.30;99.90;;;;;;5028216;28;20021;-67
2021/12/04 05:53:27;;;;;;;2.95;1.20;;;4.40;99.90;;;;;;5026822;28;20028;-67
2021/12/04 05:55:54;;;;;;;3.92;1.55;;;4.40;99.90;;;;;;5020284;28;20021;-67
2021/12/04 05:58:31;;;;;;;4.45;1.88;;;4.40;99.90;;;;;;5027579;28;20030;-67
2021/12/04 06:01:00;;;;;;;2.55;1.35;;;4.30;99.90;;;;;;5023526;28;20670;-67
2021/12/04 06:03:26;;;;;;;2.97;1.70;;;4.40;99.90;;;;;;5027853;28;20022;-67
2021/12/04 06:05:51;;;;;;;2.20;1.30;;;4.40;99.90;;;;;;5023558;28;20050;-67
2021/12/04 06:08:19;;;;;;;4.80;1.45;;;4.40;99.90;;;;;;5027501;28;20034;-67
2021/12/04 06:10:46;;;;;;;4.72;2.00;;;4.40;99.90;;;;;;5026115;28;20054;-67
2021/12/04 06:13:12;;;;;;;8.48;1.40;;;4.40;99.90;;;;;;5028109;28;20017;-67
2021/12/04 06:15:38;;;;;;;1.65;1.08;;;4.40;99.90;;;;;;5023778;28;20413;-67
2021/12/04 06:18:05;;;;;;;2.60;1.20;;;4.40;99.90;;;;;;5023197;28;20024;-67
2021/12/04 06:23:15;;;;;;;2.63;1.55;;;4.40;99.90;;;;;;5016226;28;20028;-67
2021/12/04 06:25:41;;;;;;;2.92;1.20;;;4.40;99.90;;;;;;5022069;28;20100;-67
2021/12/04 06:28:12;;;;;;;4.03;2.10;;;4.40;99.90;;;;;;5017140;28;20121;-67
2021/12/04 06:30:39;;;;;;;4.15;1.40;;;4.40;99.90;;;;;;5027646;28;20021;-67
2021/12/04 06:33:07;;;;;;;4.85;2.38;;;4.40;99.90;;;;;;5026356;28;20018;-67
2021/12/04 06:35:36;;;;;;;3.47;1.42;;;4.40;99.90;;;;;;5027116;28;20455;-67
2021/12/04 06:38:02;;;;;;;0.88;0.75;;;4.30;99.90;;;;;;5018982;28;20246;-67
2021/12/04 06:40:28;;;;;;;4.78;2.05;;;4.40;99.90;;;;;;5027746;28;20030;-67
2021/12/04 06:42:59;;;;;;;2.58;1.25;;;4.30;99.90;;;;;;5025246;28;20026;-67
2021/12/04 06:45:29;;;;;;;2.38;1.25;;;4.30;99.90;;;;;;5022858;28;20029;-67
2021/12/04 06:47:58;;;;;;;3.87;1.53;;;4.70;99.90;;;;;;5026860;28;20489;-67
2021/12/04 06:50:33;;;;;;;3.60;1.38;;;4.30;99.90;;;;;;5023411;28;20030;-67
2021/12/04 06:53:03;;;;;;;3.03;1.38;;;4.30;99.90;;;;;;5026046;28;20522;-67
2021/12/04 06:55:36;;;;;;;5.32;2.08;;;4.30;99.90;;;;;;5022901;28;20022;-67
2021/12/04 06:58:02;;;;;;;3.13;1.63;;;4.20;99.90;;;;;;5018868;28;20527;-67
2021/12/04 07:00:30;;;;;;;5.72;1.92;;;4.20;99.90;;;;;;5023381;28;20026;-67
2021/12/04 07:02:55;;;;;;;2.65;1.08;;;4.20;99.90;;;;;;5022000;28;20125;-67
2021/12/04 07:05:21;;;;;;;4.32;1.90;;;4.20;99.90;;;;;;5026147;28;20460;-67
2021/12/04 07:07:47;;;;;;;2.72;1.27;;;4.20;99.90;;;;;;5024983;28;20113;-67
2021/12/04 07:10:12;;;;;;;2.47;1.30;;;4.20;99.90;;;;;;5022722;28;20029;-67
2021/12/04 07:12:38;;;;;;;3.80;1.50;;;4.20;99.90;;;;;;5028606;28;20049;-67
2021/12/04 07:15:04;;;;;;;3.35;1.25;;;4.20;99.90;;;;;;5027294;28;20029;-67
2021/12/04 07:17:30;;;;;;;0.70;0.70;;;4.20;99.90;;;;;;5026441;28;20378;-67
2021/12/04 07:19:55;;;;;;;7.25;2.90;;;4.20;99.90;;;;;;5029235;28;20067;-67
2021/12/04 07:22:21;;;;;;;8.18;2.67;;;4.20;99.90;;;;;;5027823;28;20037;-67
2021/12/04 07:24:47;;;;;;;3.70;1.70;;;4.10;99.90;;;;;;5025664;28;20059;-67
2021/12/04 07:27:20;;;;;;;6.43;2.55;;;4.10;99.90;;;;;;5028613;28;20096;-67
2021/12/04 07:29:46;;;;;;;3.85;1.52;;;4.10;99.90;;;;;;5026287;28;20026;-67
2021/12/04 07:32:12;;;;;;;5.13;2.17;;;4.20;99.90;;;;;;5031089;28;20098;-67
2021/12/04 07:34:37;;;;;;;7.28;1.63;;;4.20;99.90;;;;;;5026923;28;20030;-67
2021/12/04 07:37:03;;;;;;;3.42;1.92;;;4.20;99.90;;;;;;5027390;28;20033;-67
2021/12/04 07:39:29;;;;;;;2.83;1.60;;;4.10;99.90;;;;;;5025602;28;20014;-67
2021/12/04 07:41:55;;;;;;;16.35;2.80;;;4.20;99.90;;;;;;5022113;28;20500;-67
2021/12/04 07:44:21;;;;;;;13.43;2.30;;;4.20;99.90;;;;;;5026797;28;20025;-67
2021/12/04 07:46:46;;;;;;;2.58;1.50;;;4.20;99.90;;;;;;5027600;28;20091;-67
2021/12/04 07:49:12;;;;;;;7.65;2.92;;;4.20;99.90;;;;;;5025447;28;20366;-67
2021/12/04 07:51:39;;;;;;;6.25;2.75;;;4.20;99.90;;;;;;5026836;28;20033;-67
2021/12/04 07:54:05;;;;;;;3.90;2.15;;;4.30;99.90;;;;;;5028012;28;20324;-68
2021/12/04 07:56:31;;;;;;;4.20;1.50;;;4.30;99.90;;;;;;5028434;28;20032;-67
2021/12/04 07:58:58;;;;;;;2.35;1.27;;;4.40;99.90;;;;;;5025508;28;20060;-67
2021/12/04 08:01:23;;;;;;;3.25;1.40;;;4.40;99.90;;;;;;5029632;28;20013;-67
2021/12/04 08:03:49;;;;;;;4.03;1.48;;;4.40;99.90;;;;;;5024620;28;20025;-67
2021/12/04 08:06:15;;;;;;;4.57;1.90;;;4.40;99.90;;;;;;5027449;28;20056;-67
2021/12/04 08:08:40;;;;;;;9.13;2.35;;;4.40;99.90;;;;;;5027507;28;20033;-67
2021/12/04 08:11:06;;;;;;;6.15;2.60;;;4.50;99.90;;;;;;5028362;28;20495;-67
2021/12/04 08:13:32;;;;;;;3.10;1.40;;;4.50;99.90;;;;;;5026182;28;20040;-67
2021/12/04 08:15:58;;;;;;;4.90;2.38;;;4.40;99.90;;;;;;5025127;28;20052;-67
2021/12/04 08:18:23;;;;;;;5.78;2.35;;;4.50;99.90;;;;;;5030303;28;20014;-66
2021/12/04 08:20:50;;;;;;;6.43;3.22;;;4.60;99.90;;;;;;5026625;28;20536;-66
2021/12/04 08:23:17;;;;;;;5.90;2.08;;;4.60;99.90;;;;;;5029384;28;20021;-66
2021/12/04 08:25:43;;;;;;;5.75;2.90;;;4.60;99.90;;;;;;5026229;28;20014;-67
2021/12/04 08:28:09;;;;;;;5.72;2.28;;;4.50;99.90;;;;;;5028502;28;20022;-66
2021/12/04 08:30:39;;;;;;;3.90;1.77;;;4.40;99.90;;;;;;5029785;28;20370;-66
2021/12/04 08:33:04;;;;;;;4.82;1.90;;;4.50;99.90;;;;;;5017971;28;20022;-66
2021/12/04 08:35:35;;;;;;;4.47;2.25;;;4.40;99.90;;;;;;5025094;28;20240;-66
2021/12/04 08:38:01;;;;;;;3.58;1.52;;;4.50;99.90;;;;;;5025598;28;20048;-66
2021/12/04 08:40:28;;;;;;;9.30;2.95;;;4.50;99.90;;;;;;5027128;28;20022;-66
2021/12/04 08:42:54;;;;;;;4.40;1.95;;;4.50;99.90;;;;;;5027970;28;20076;-66
2021/12/04 08:45:20;;;;;;;4.65;2.72;;;4.50;99.90;;;;;;5027660;28;20056;-66
2021/12/04 08:47:46;;;;;;;6.95;2.58;;;4.50;99.90;;;;;;5028779;28;20044;-66
2021/12/04 08:50:15;;;;;;;12.98;2.22;;;4.50;99.90;;;;;;5028175;28;20022;-67
2021/12/04 08:52:42;;;;;;;7.43;2.53;;;4.60;99.90;;;;;;5022263;28;20025;-66
2021/12/04 08:55:09;;;;;;;4.82;1.88;;;4.60;99.90;;;;;;5025606;28;20160;-66
2021/12/04 08:57:34;;;;;;;4.82;2.42;;;4.50;99.90;;;;;;5027879;28;20487;-66
2021/12/04 09:00:00;;;;;;;3.67;1.83;;;4.50;99.90;;;;;;5021507;28;20109;-65
2021/12/04 09:02:26;;;;;;;5.95;2.42;;;4.50;99.90;;;;;;5027704;28;20395;-65
2021/12/04 09:04:54;;;;;;;4.25;1.83;;;4.60;99.90;;;;;;5026980;28;20150;-66
2021/12/04 09:07:20;;;;;;;4.72;1.92;;;4.70;99.90;;;;;;5028116;28;20099;-65
2021/12/04 09:09:47;;;;;;;5.15;1.77;;;4.80;99.90;;;;;;5023411;28;20033;-65
2021/12/04 09:12:14;;;;;;;6.82;3.08;;;4.80;99.90;;;;;;5026451;28;20395;-65
2021/12/04 09:14:42;;;;;;;6.07;1.95;;;4.80;99.90;;;;;;5027029;28;20025;-65
2021/12/04 09:17:11;;;;;;;5.90;2.42;;;4.80;99.90;;;;;;5016450;28;20050;-65
2021/12/04 09:19:37;;;;;;;4.95;2.15;;;4.70;99.90;;;;;;5023929;28;20136;-65
2021/12/04 09:22:06;;;;;;;5.05;1.88;;;4.80;99.90;;;;;;5026113;28;20064;-65
2021/12/04 09:24:40;;;;;;;6.13;2.40;;;4.80;99.90;;;;;;5022746;28;20393;-65
2021/12/04 10:20:41;;;;;;;2.03;1.20;;;5.30;99.90;;;;;;5028881;28;20025;-64
2021/12/04 10:33:57;;;;;;;7.07;1.95;;;5.70;99.90;;;;;;5025138;28;19940;-64
2021/12/04 10:36:30;;;;;;;4.05;1.88;;;5.80;99.90;;;;;;5016335;28;20018;-64
2021/12/04 10:38:56;;;;;;;5.15;1.75;;;6.00;99.90;;;;;;5027572;28;20017;-65
2021/12/04 10:41:34;;;;;;;5.57;2.28;;;5.90;99.90;;;;;;5026727;28;20088;-64
2021/12/04 10:44:17;;;;;;;7.55;2.47;;;5.90;99.90;;;;;;5023941;28;20026;-64
2021/12/04 10:47:00;;;;;;;3.67;1.48;;;5.90;99.90;;;;;;5029472;28;20033;-64
2021/12/04 10:49:50;;;;;;;8.40;1.73;;;5.60;99.90;;;;;;5032847;28;20036;-65
2021/12/04 10:55:14;;;;;;;4.40;2.17;;;5.60;99.90;;;;;;5013476;28;20061;-65
2021/12/04 11:00:39;;;;;;;4.28;2.30;;;5.50;99.90;;;;;;5027261;28;19913;-66
2021/12/04 11:46:30;;;;;;;5.53;2.97;;;5.90;99.90;;;;;;5029655;28;20079;-67
2021/12/04 11:48:59;;;;;;;3.22;1.63;;;5.90;99.90;;;;;;5029571;28;20485;-67
2021/12/04 11:51:26;;;;;;;6.93;2.03;;;5.90;99.90;;;;;;5028980;28;20041;-65
2021/12/04 11:53:54;;;;;;;3.95;1.70;;;5.90;99.90;;;;;;5031789;28;20384;-65
2021/12/04 11:56:23;;;;;;;5.03;1.98;;;6.00;99.90;;;;;;5021897;28;20018;-65
2021/12/04 11:58:51;;;;;;;4.38;1.75;;;5.90;99.90;;;;;;5030483;28;20060;-65
2021/12/04 12:01:31;;;;;;;5.15;2.08;;;6.00;99.90;;;;;;5021112;28;20359;-65
2021/12/04 12:04:05;;;;;;;4.68;2.15;;;6.00;99.90;;;;;;5029451;28;20029;-65
2021/12/04 12:06:39;;;;;;;5.22;2.13;;;5.90;99.90;;;;;;5022384;28;20050;-65
2021/12/04 12:09:17;;;;;;;5.90;2.28;;;6.00;99.90;;;;;;5026567;28;20025;-65
2021/12/04 12:11:53;;;;;;;5.70;1.80;;;5.90;99.90;;;;;;5030060;28;20389;-65
2021/12/04 12:14:23;;;;;;;4.68;2.13;;;5.90;99.90;;;;;;5022810;28;20037;-64
2021/12/04 12:16:53;;;;;;;3.05;1.58;;;5.90;99.90;;;;;;5022833;28;20022;-64
2021/12/04 12:19:31;;;;;;;4.10;2.03;;;5.90;99.90;;;;;;5029736;28;20427;-65
2021/12/04 12:22:18;;;;;;;5.60;2.03;;;5.80;99.90;;;;;;5018503;28;20091;-65
2021/12/04 12:27:54;;;;;;;7.18;2.28;;;5.80;99.90;;;;;;5021684;28;20489;-65
2021/12/04 12:36:03;;;;;;;5.65;2.25;;;6.00;99.90;;;;;;5022713;28;20113;-65
2021/12/04 12:38:29;;;;;;;5.55;2.28;;;6.10;99.90;;;;;;5026202;28;20049;-65
2021/12/04 12:41:07;;;;;;;4.85;2.10;;;6.10;99.90;;;;;;5028060;28;20481;-65
2021/12/04 12:44:05;;;;;;;3.45;1.75;;;6.20;99.90;;;;;;5027771;28;20093;-65
2021/12/04 12:46:39;;;;;;;4.50;1.63;;;6.30;99.90;;;;;;5025541;28;20021;-67
2021/12/04 12:49:17;;;;;;;8.32;1.85;;;6.10;99.90;;;;;;5015542;28;20677;-67
2021/12/04 12:52:00;;;;;;;7.30;2.70;;;6.20;99.90;;;;;;5025379;28;20104;-66
2021/12/04 12:54:59;;;;;;;6.10;2.35;;;6.10;99.90;;;;;;5029339;28;20071;-66
2021/12/04 12:57:28;;;;;;;9.85;2.50;;;6.40;99.90;;;;;;5020228;28;20033;-65
2021/12/04 13:14:12;;;;;;;4.45;1.60;;;6.30;99.90;;;;;;5021644;28;20022;-66
2021/12/04 13:16:42;;;;;;;4.53;1.92;;;6.30;99.90;;;;;;5025031;28;20032;-66
2021/12/04 13:19:11;;;;;;;5.38;2.22;;;6.20;99.90;;;;;;5027674;28;20036;-66
2021/12/04 13:21:39;;;;;;;4.97;2.00;;;6.10;99.90;;;;;;5028634;28;20386;-66
2021/12/04 13:24:07;;;;;;;4.47;1.77;;;6.20;99.90;;;;;;5025275;28;20029;-66
2021/12/04 13:26:37;;;;;;;4.38;1.88;;;6.40;99.90;;;;;;5023456;28;20397;-66
2021/12/04 13:29:06;;;;;;;4.70;1.73;;;6.50;99.90;;;;;;5022077;28;20025;-67
2021/12/04 13:31:34;;;;;;;4.63;2.05;;;6.70;99.90;;;;;;5031537;28;20087;-66
2021/12/04 13:33:59;;;;;;;5.25;2.08;;;6.70;99.90;;;;;;5035799;28;20021;-66
2021/12/04 13:36:30;;;;;;;6.53;2.17;;;6.60;99.90;;;;;;5028367;28;20448;-66
2021/12/04 13:39:03;;;;;;;5.38;1.65;;;6.70;99.90;;;;;;5027895;28;20017;-66
2021/12/04 13:41:29;;;;;;;4.85;1.80;;;6.80;99.90;;;;;;5029326;28;20026;-66
2021/12/04 13:43:56;;;;;;;6.93;2.63;;;6.70;99.90;;;;;;5021375;28;20108;-66
2021/12/04 13:46:24;;;;;;;5.15;2.22;;;6.30;99.90;;;;;;5030311;28;20090;-66
2021/12/04 13:48:51;;;;;;;6.90;2.83;;;6.10;99.90;;;;;;5029174;28;20043;-66
2021/12/04 13:51:17;;;;;;;9.77;3.80;;;5.90;99.90;;;;;;5028077;28;20100;-66
2021/12/04 13:53:46;;;;;;;9.35;3.58;;;5.80;99.90;;;;;;5026301;28;20029;-66
2021/12/04 13:56:17;;;;;;;5.25;2.13;;;5.70;99.90;;;;;;5026470;28;20017;-66
2021/12/04 13:58:50;;;;;;;6.43;2.50;;;5.70;99.90;;;;;;5029050;28;20386;-66
2021/12/04 14:01:16;;;;;;;5.78;2.40;;;5.90;99.90;;;;;;5023588;28;20026;-66
2021/12/04 14:03:42;;;;;;;4.32;2.25;;;6.10;99.90;;;;;;5027202;28;20087;-66
2021/12/04 14:06:13;;;;;;;5.50;2.30;;;5.90;99.90;;;;;;5032200;28;20132;-66
2021/12/04 14:08:39;;;;;;;6.00;1.73;;;5.80;99.90;;;;;;5029272;28;20029;-66
2021/12/04 14:11:05;;;;;;;5.28;2.08;;;5.70;99.90;;;;;;5026966;28;20025;-66
2021/12/04 14:13:31;;;;;;;4.03;2.05;;;5.50;99.90;;;;;;5024339;28;20358;-66
2021/12/04 14:15:56;;;;;;;6.72;2.65;;;5.50;99.90;;;;;;5020454;28;20025;-67
2021/12/04 14:18:24;;;;;;;6.25;1.92;;;5.40;99.90;;;;;;5032589;28;20021;-66
2021/12/04 14:20:56;;;;;;;8.68;2.40;;;5.50;99.90;;;;;;5033575;28;20117;-66
2021/12/04 14:23:27;;;;;;;4.32;2.00;;;5.50;99.90;;;;;;5019773;28;20519;-66
2021/12/04 14:25:55;;;;;;;5.25;1.90;;;5.40;99.90;;;;;;5018730;28;20022;-66
2021/12/04 14:28:31;;;;;;;5.38;2.17;;;5.50;99.90;;;;;;5020737;28;20024;-66
2021/12/04 14:30:57;;;;;;;6.15;1.85;;;5.40;99.90;;;;;;5018985;28;20101;-66
2021/12/04 14:33:24;;;;;;;6.75;2.15;;;5.40;99.90;;;;;;5020192;28;20590;-67
2021/12/04 14:35:52;;;;;;;7.35;2.65;;;5.40;99.90;;;;;;5015682;28;20034;-66
2021/12/04 14:38:24;;;;;;;5.00;1.63;;;5.50;99.90;;;;;;5017083;28;20445;-66
2021/12/04 14:40:58;;;;;;;5.13;1.92;;;5.50;99.90;;;;;;5024073;28;20030;-66
2021/12/04 14:43:26;;;;;;;4.57;1.60;;;5.50;99.90;;;;;;5019249;28;20022;-66
2021/12/04 14:45:56;;;;;;;3.38;1.52;;;5.50;99.90;;;;;;5023863;28;20472;-66
2021/12/04 14:48:35;;;;;;;4.20;1.70;;;5.40;99.90;;;;;;5018647;28;20030;-66
2021/12/04 14:51:06;;;;;;;2.90;1.40;;;5.40;99.90;;;;;;5021219;28;20025;-66
2021/12/04 14:53:42;;;;;;;4.68;1.90;;;5.20;99.90;;;;;;5021642;28;20025;-66
2021/12/04 14:56:10;;;;;;;2.60;1.40;;;5.20;99.90;;;;;;5016738;28;20140;-66
2021/12/04 14:58:36;;;;;;;6.68;1.98;;;5.40;99.90;;;;;;5018215;28;20129;-66
2021/12/04 15:01:08;;;;;;;4.57;1.70;;;5.30;99.90;;;;;;5017844;28;20089;-66
2021/12/04 15:03:36;;;;;;;5.97;2.35;;;5.20;99.90;;;;;;5018060;28;20017;-66
2021/12/04 15:06:05;;;;;;;4.88;1.85;;;5.30;99.90;;;;;;5022154;28;20128;-66
2021/12/04 15:08:38;;;;;;;5.38;2.10;;;5.40;99.90;;;;;;5019862;28;20554;-66
2021/12/04 15:11:16;;;;;;;4.80;1.45;;;5.30;99.90;;;;;;5022419;28;20540;-66
2021/12/04 15:13:53;;;;;;;3.90;1.50;;;5.40;99.90;;;;;;5021699;28;20033;-66
2021/12/04 15:16:28;;;;;;;3.70;1.80;;;5.40;99.90;;;;;;5022968;28;20053;-66
2021/12/04 15:19:04;;;;;;;4.03;1.40;;;5.30;99.90;;;;;;5019315;28;20052;-66
2021/12/04 15:21:40;;;;;;;8.52;2.78;;;5.40;99.90;;;;;;5016969;28;20041;-66
2021/12/04 15:24:08;;;;;;;4.05;2.05;;;5.30;99.90;;;;;;5018139;28;20065;-66
2021/12/04 15:26:41;;;;;;;4.97;2.28;;;5.30;99.90;;;;;;5019042;28;20056;-66
2021/12/04 15:29:14;;;;;;;5.57;1.83;;;5.30;99.90;;;;;;5017149;28;20064;-66
2021/12/04 15:31:40;;;;;;;7.72;2.30;;;5.40;99.90;;;;;;5021588;28;20021;-66
2021/12/04 15:34:05;;;;;;;4.35;1.70;;;5.20;99.90;;;;;;5022076;28;20034;-66
2021/12/04 15:36:40;;;;;;;5.55;2.60;;;5.30;99.90;;;;;;5025611;28;20415;-66
2021/12/04 15:39:15;;;;;;;4.07;1.77;;;5.20;99.90;;;;;;5022501;28;20014;-66
2021/12/04 15:47:50;;;;;;;5.75;2.35;;;5.20;99.90;;;;;;5025886;28;20029;-66
2021/12/04 15:53:08;;;;;;;6.68;2.28;;;5.20;99.90;;;;;;5026105;28;20429;-66
2021/12/04 15:55:55;;;;;;;20.08;2.72;;;5.20;99.90;;;;;;5018565;28;20033;-66
2021/12/04 15:58:32;;;;;;;7.13;3.05;;;5.20;99.90;;;;;;5022752;28;20415;-66
2021/12/04 16:01:07;;;;;;;6.07;2.60;;;5.10;99.90;;;;;;5019350;28;20033;-66
2021/12/04 16:03:40;;;;;;;5.28;2.22;;;5.10;99.90;;;;;;5019664;28;20029;-66
2021/12/04 16:06:11;;;;;;;4.97;2.25;;;5.20;99.90;;;;;;5038084;28;20788;-66
2021/12/04 16:08:39;;;;;;;7.35;2.70;;;5.20;99.90;;;;;;5019523;28;20025;-66
2021/12/04 16:11:08;;;;;;;3.92;1.92;;;5.20;99.90;;;;;;5022312;28;20029;-66
2021/12/04 16:13:39;;;;;;;3.80;1.70;;;5.00;99.90;;;;;;5019389;28;20111;-66
2021/12/04 16:16:18;;;;;;;5.40;1.90;;;5.00;99.90;;;;;;5022965;28;20029;-66
2021/12/04 16:18:44;;;;;;;2.85;1.67;;;4.90;99.90;;;;;;5024348;28;20030;-66
2021/12/04 16:21:11;;;;;;;3.38;1.52;;;4.90;99.90;;;;;;5023528;28;20372;-65
2021/12/04 16:23:38;;;;;;;4.00;2.08;;;4.80;99.90;;;;;;5021834;28;20021;-65
2021/12/04 16:26:05;;;;;;;4.15;2.33;;;4.80;99.90;;;;;;5018846;28;20322;-65
2021/12/04 16:36:37;;;;;;;4.22;2.30;;;4.70;99.90;;;;;;5022369;28;20501;-66
2021/12/04 16:39:04;;;;;;;1.50;1.03;;;4.70;99.90;;;;;;5026003;28;20013;-66
2021/12/04 16:41:30;;;;;;;2.25;1.27;;;4.50;99.90;;;;;;5027812;28;20256;-65